»·PEaware :: N727JR KSNA-KSMO

N727JR :: KSNA-KSMO

FLIGHT INFORMATION

Flight Status: Arrived
Operator: Privately registered:
United States
More flights under this callsign
Pilot: Salim S. (29683)
Aircraft: Unknown
(DA62)
More flights by this aircraft type
Origin: KSNA John Wayne-Orange Co
United States
Destination: KSMO Santa Monica Mun
United States
More flights between these airports :: More routes between these airports
Route: +SLI V8 POXKU V363 BAYJY V186 DARTS
File this flight plan on PilotEdge
Remarks:
Altitude:
(Current/Filed)
8,000ft
Speed:
(Current/Filed)
150kts
Departed: 22-May-20 09:18 AM
Arrived: 22-May-20 09:55 AM
Distance/Time
Traveled:
35nm/0:37
Distance/Time
To Go:
Arrived

Flight Plot

Page will automatically refresh every two minutes.


Map Options




Map Legend


Flown Route
Filed Route
Departure Airport
Arrival Airport
Navaid (VOR, NDB)
Fix

Horizontal Profiles

Position Reports

Time Latitude Longitude Heading Altitude Ground
Speed
22-May-20 08:55 33.673059 -117.866160 118 60ft 0kts
22-May-20 08:56 33.673059 -117.866160 118 60ft 0kts
22-May-20 08:57 33.673059 -117.866160 118 60ft 0kts
22-May-20 08:58 33.673059 -117.866160 118 60ft 0kts
22-May-20 08:59 33.673059 -117.866160 118 60ft 0kts
22-May-20 09:00 33.673059 -117.866160 118 60ft 0kts
22-May-20 09:01 33.673059 -117.866160 118 60ft 0kts
22-May-20 09:02 33.673059 -117.866160 118 60ft 0kts
22-May-20 09:03 33.673059 -117.866160 118 60ft 0kts
22-May-20 09:04 33.673059 -117.866160 118 60ft 0kts
22-May-20 09:05 33.673059 -117.866160 118 60ft 0kts
22-May-20 09:06 33.673059 -117.866160 118 60ft 0kts
22-May-20 09:07 33.673059 -117.866160 118 60ft 0kts
22-May-20 09:08 33.673059 -117.866160 118 60ft 0kts
22-May-20 09:09 33.673059 -117.866160 118 60ft 0kts
22-May-20 09:10 33.673059 -117.866160 118 60ft 0kts
22-May-20 09:11 33.673059 -117.866160 118 60ft 0kts
22-May-20 09:12 33.673059 -117.866160 118 60ft 0kts
22-May-20 09:13 33.673194 -117.866302 293 60ft 6kts
22-May-20 09:14 33.674699 -117.866703 27 60ft 12kts
22-May-20 09:15 33.677569 -117.864888 28 60ft 10kts
22-May-20 09:16 33.679945 -117.863576 300 60ft 0kts
22-May-20 09:17 33.678922 -117.864916 206 60ft 47kts
22-May-20 09:18 33.658027 -117.881744 229 1027ft 103kts
22-May-20 09:19 33.640294 -117.911685 231 1987ft 136kts
22-May-20 09:20 33.615254 -117.952899 231 1987ft 159kts
22-May-20 09:21 33.588960 -117.995854 231 1984ft 160kts
22-May-20 09:22 33.562497 -118.039045 231 1979ft 160kts
22-May-20 09:23 33.544115 -118.080519 291 2648ft 139kts
22-May-20 09:24 33.576365 -118.080124 34 3426ft 128kts
22-May-20 09:25 33.611610 -118.075246 4 4173ft 131kts
22-May-20 09:26 33.648134 -118.071261 6 4897ft 133kts
22-May-20 09:27 33.685338 -118.066680 5 5619ft 135kts
22-May-20 09:28 33.724853 -118.061830 4 5967ft 158kts
22-May-20 09:29 33.769909 -118.050989 34 5962ft 172kts
22-May-20 09:30 33.797637 -118.006156 76 5971ft 169kts
22-May-20 09:31 33.811217 -117.950025 75 5967ft 179kts
22-May-20 09:32 33.826159 -117.892394 74 5964ft 181kts
22-May-20 09:33 33.841157 -117.834397 74 5960ft 181kts
22-May-20 09:34 33.863474 -117.781084 30 5945ft 185kts
22-May-20 09:35 33.912820 -117.783796 349 5948ft 182kts
22-May-20 09:36 33.963836 -117.785728 358 5947ft 184kts
22-May-20 09:38 34.009882 -117.795893 318 5951ft 163kts
22-May-20 09:39 34.025647 -117.846502 289 5974ft 163kts
22-May-20 09:40 34.041201 -117.897791 292 5969ft 162kts
22-May-20 09:41 34.056948 -117.948892 292 5956ft 163kts
22-May-20 09:42 34.072768 -118.000271 293 5951ft 163kts
22-May-20 09:43 34.088538 -118.051307 291 5967ft 161kts
22-May-20 09:44 34.104194 -118.102536 291 5786ft 166kts
22-May-20 09:45 34.119698 -118.154553 291 5210ft 163kts
22-May-20 09:46 34.135434 -118.203875 293 4766ft 150kts
22-May-20 09:47 34.149709 -118.249512 293 4240ft 142kts
22-May-20 09:48 34.142717 -118.290974 221 3654ft 134kts
22-May-20 09:49 34.117241 -118.324074 226 2976ft 129kts
22-May-20 09:50 34.095837 -118.354753 222 2587ft 120kts
22-May-20 09:51 34.075182 -118.378335 219 1946ft 96kts
22-May-20 09:52 34.055885 -118.400637 227 1361ft 97kts
22-May-20 09:52 34.040958 -118.420955 223 872ft 97kts
22-May-20 09:54 34.019879 -118.446555 220 211ft 88kts
22-May-20 09:55 34.012353 -118.454475 50 125ft 0kts
22-May-20 09:55 34.012713 -118.453546 100 127ft 9kts
22-May-20 09:57 34.012906 -118.452786 313 128ft 0kts
22-May-20 09:57 34.012906 -118.452786 313 128ft 0kts

Navigation Log

Ident Type
Flight plan parsing failed, navigation log unavailable